Time,TemperatureF,DewpointF,PressureIn,WindDirection,WindDirectionDegrees,WindSpeedMPH,WindSpeedGustMPH,Humidity,HourlyPrecipIn,Conditions,Clouds,dailyrainin,SoftwareType,DateUTC
2013-06-04 00:03:00,71.1,58.8,29.12,ESE,118,6.1,10.7,66,0.00,,,0.00,WSDL version 426,2013-06-04 05:03:00,
2013-06-04 00:08:00,70.8,58.9,29.15,ESE,115,6.2,10.3,66,0.00,,,0.00,WSDL version 426,2013-06-04 05:08:00,
2013-06-04 00:13:00,70.7,58.8,29.15,ESE,115,6.9,9.8,66,0.00,,,0.00,WSDL version 426,2013-06-04 05:13:00,
2013-06-04 00:18:00,70.7,58.8,29.15,ESE,115,6.0,9.8,66,0.00,,,0.00,WSDL version 426,2013-06-04 05:18:00,
2013-06-04 00:23:00,70.5,58.6,29.15,ESE,120,6.7,10.3,66,0.00,,,0.00,WSDL version 426,2013-06-04 05:23:00,
2013-06-04 00:28:00,70.5,58.6,29.15,ESE,113,5.2,10.3,66,0.00,,,0.00,WSDL version 426,2013-06-04 05:28:00,
2013-06-04 00:33:00,70.6,58.7,29.15,ESE,120,5.2,7.8,66,0.00,,,0.00,WSDL version 426,2013-06-04 05:33:00,
2013-06-04 00:38:00,70.9,58.7,29.15,ESE,110,5.4,7.8,65,0.00,,,0.00,WSDL version 426,2013-06-04 05:38:00,
2013-06-04 00:43:00,70.6,58.3,29.15,ESE,115,4.4,7.8,65,0.00,,,0.00,WSDL version 426,2013-06-04 05:43:00,
2013-06-04 00:48:00,70.3,58.1,29.15,ESE,121,4.5,6.5,65,0.00,,,0.00,WSDL version 426,2013-06-04 05:48:00,
2013-06-04 00:53:00,70.1,57.9,29.15,ESE,115,3.4,6.5,66,0.00,,,0.00,WSDL version 426,2013-06-04 05:53:00,
2013-06-04 00:58:00,69.9,58.0,29.15,ESE,113,3.2,5.6,66,0.00,,,0.00,WSDL version 426,2013-06-04 05:58:00,
2013-06-04 01:03:00,69.8,58.1,29.15,ESE,110,3.2,6.5,67,0.00,,,0.00,WSDL version 426,2013-06-04 06:03:00,
2013-06-04 01:08:00,70.2,58.8,29.15,ESE,113,3.6,6.5,67,0.00,,,0.00,WSDL version 426,2013-06-04 06:08:00,
2013-06-04 01:13:00,70.1,58.3,29.15,ESE,107,3.1,4.5,66,0.00,,,0.00,WSDL version 426,2013-06-04 06:13:00,
2013-06-04 01:18:00,69.7,58.1,29.15,ESE,120,3.8,4.9,67,0.00,,,0.00,WSDL version 426,2013-06-04 06:18:00,
2013-06-04 01:23:00,69.5,58.1,29.15,ESE,110,2.6,4.9,67,0.00,,,0.00,WSDL version 426,2013-06-04 06:23:00,
2013-06-04 01:28:00,69.3,57.9,29.15,ESE,113,3.5,5.6,67,0.00,,,0.00,WSDL version 426,2013-06-04 06:28:00,
2013-06-04 01:33:00,69.3,57.8,29.15,SE,127,1.8,5.6,67,0.00,,,0.00,WSDL version 426,2013-06-04 06:33:00,
2013-06-04 01:38:00,69.3,58.3,29.15,South,188,2.1,3.4,68,0.00,,,0.00,WSDL version 426,2013-06-04 06:38:00,
2013-06-04 01:43:00,69.2,58.4,29.15,SW,215,2.4,3.4,69,0.00,,,0.00,WSDL version 426,2013-06-04 06:43:00,
2013-06-04 01:48:00,69.1,58.1,29.15,South,174,1.4,3.4,68,0.00,,,0.00,WSDL version 426,2013-06-04 06:48:00,
2013-06-04 01:53:00,69.2,58.2,29.18,SSE,158,0.9,2.5,68,0.00,,,0.00,WSDL version 426,2013-06-04 06:53:00,
2013-06-04 01:58:00,69.1,58.1,29.18,SSE,158,0.4,1.3,68,0.00,,,0.00,WSDL version 426,2013-06-04 06:58:00,
2013-06-04 02:03:00,69.1,58.4,29.18,SSE,158,1.5,2.2,69,0.00,,,0.00,WSDL version 426,2013-06-04 07:03:00,
2013-06-04 02:08:00,69.4,59.3,29.15,ESE,113,2.5,3.4,71,0.00,,,0.00,WSDL version 426,2013-06-04 07:08:00,
2013-06-04 02:13:00,69.6,59.5,29.15,ESE,118,1.8,3.8,70,0.00,,,0.00,WSDL version 426,2013-06-04 07:13:00,
2013-06-04 02:18:00,69.3,59.1,29.15,SSW,195,1.4,3.8,70,0.00,,,0.00,WSDL version 426,2013-06-04 07:18:00,
2013-06-04 02:23:00,69.1,59.2,29.18,West,273,4.6,5.6,71,0.00,,,0.00,WSDL version 426,2013-06-04 07:23:00,
2013-06-04 02:28:00,68.9,59.2,29.18,ESE,115,2.5,5.6,71,0.00,,,0.00,WSDL version 426,2013-06-04 07:28:00,
2013-06-04 02:33:00,68.8,59.1,29.18,South,170,1.4,4.0,71,0.00,,,0.00,WSDL version 426,2013-06-04 07:33:00,
2013-06-04 02:38:00,68.6,58.9,29.15,SE,141,2.1,4.0,71,0.00,,,0.00,WSDL version 426,2013-06-04 07:38:00,
2013-06-04 02:43:00,68.5,58.8,29.15,SE,135,0.2,2.9,71,0.00,,,0.00,WSDL version 426,2013-06-04 07:43:00,
2013-06-04 02:48:00,68.4,58.7,29.15,SE,135,0.2,2.7,71,0.00,,,0.00,WSDL version 426,2013-06-04 07:48:00,
2013-06-04 02:53:00,68.3,58.9,29.12,SW,220,1.9,2.5,72,0.00,,,0.00,WSDL version 426,2013-06-04 07:53:00,
2013-06-04 02:58:00,68.2,58.8,29.12,SSE,158,1.5,2.5,72,0.00,,,0.00,WSDL version 426,2013-06-04 07:58:00,
2013-06-04 03:03:00,68.0,59.0,29.12,WSW,238,2.5,3.1,74,0.00,,,0.00,WSDL version 426,2013-06-04 08:03:00,
2013-06-04 03:08:00,67.9,59.3,29.12,ESE,118,1.9,3.1,74,0.00,,,0.00,WSDL version 426,2013-06-04 08:08:00,
2013-06-04 03:13:00,67.8,59.4,29.12,ESE,113,1.4,3.1,75,0.00,,,0.00,WSDL version 426,2013-06-04 08:13:00,
2013-06-04 03:18:00,67.8,59.6,29.12,ESE,113,0.0,2.9,75,0.00,,,0.00,WSDL version 426,2013-06-04 08:18:00,
2013-06-04 03:23:00,67.6,59.4,29.12,ENE,73,2.2,2.9,75,0.00,,,0.00,WSDL version 426,2013-06-04 08:23:00,
2013-06-04 03:28:00,67.6,59.4,29.12,ENE,68,2.5,3.4,75,0.00,,,0.00,WSDL version 426,2013-06-04 08:28:00,
2013-06-04 03:33:00,67.9,60.6,29.12,East,90,1.5,3.4,79,0.00,,,0.00,WSDL version 426,2013-06-04 08:33:00,
2013-06-04 03:38:00,68.2,60.9,29.12,East,93,2.4,3.8,76,0.00,,,0.00,WSDL version 426,2013-06-04 08:38:00,
2013-06-04 03:43:00,67.9,60.2,29.12,ESE,120,3.4,4.9,76,0.00,,,0.00,WSDL version 426,2013-06-04 08:43:00,
2013-06-04 03:48:00,67.7,59.9,29.12,ESE,113,1.5,4.9,76,0.00,,,0.00,WSDL version 426,2013-06-04 08:48:00,
2013-06-04 03:53:00,67.6,59.8,29.12,ESE,107,1.8,4.0,76,0.00,,,0.00,WSDL version 426,2013-06-04 08:53:00,
2013-06-04 03:58:00,67.5,59.6,29.12,ESE,110,2.2,3.6,76,0.00,,,0.00,WSDL version 426,2013-06-04 08:58:00,
2013-06-04 04:03:00,67.4,59.9,29.12,East,90,2.5,3.4,77,0.00,,,0.00,WSDL version 426,2013-06-04 09:03:00,
2013-06-04 04:08:00,67.5,60.0,29.15,ESE,113,1.4,3.1,77,0.00,,,0.00,WSDL version 426,2013-06-04 09:08:00,
2013-06-04 04:13:00,67.5,60.1,29.15,WSW,240,2.2,2.9,78,0.00,,,0.00,WSDL version 426,2013-06-04 09:13:00,
2013-06-04 04:18:00,67.5,60.4,29.15,WSW,248,1.2,2.7,78,0.00,,,0.00,WSDL version 426,2013-06-04 09:18:00,
2013-06-04 04:23:00,67.5,60.4,29.15,ESE,104,1.6,2.5,78,0.00,,,0.00,WSDL version 426,2013-06-04 09:23:00,
2013-06-04 04:28:00,67.5,60.1,29.15,ESE,113,1.0,2.9,78,0.00,,,0.00,WSDL version 426,2013-06-04 09:28:00,
2013-06-04 04:33:00,67.5,60.4,29.15,ESE,113,0.1,2.9,78,0.00,,,0.00,WSDL version 426,2013-06-04 09:33:00,
2013-06-04 04:38:00,67.5,60.3,29.15,ESE,113,0.0,1.6,78,0.00,,,0.00,WSDL version 426,2013-06-04 09:38:00,
2013-06-04 04:43:00,67.5,60.3,29.15,ESE,113,0.0,1.6,78,0.00,,,0.00,WSDL version 426,2013-06-04 09:43:00,
2013-06-04 04:48:00,67.6,60.5,29.15,ESE,113,0.0,1.6,78,0.00,,,0.00,WSDL version 426,2013-06-04 09:48:00,
2013-06-04 04:53:00,67.6,60.5,29.15,East,95,0.7,2.0,78,0.00,,,0.00,WSDL version 426,2013-06-04 09:53:00,
2013-06-04 04:58:00,68.1,61.4,29.15,NNE,23,1.3,2.0,79,0.00,,,0.00,WSDL version 426,2013-06-04 09:58:00,
2013-06-04 05:03:00,68.5,61.2,29.15,NW,320,2.7,3.8,77,0.00,,,0.00,WSDL version 426,2013-06-04 10:03:00,
2013-06-04 05:08:00,68.2,61.1,29.18,West,281,4.8,5.8,79,0.00,,,0.00,WSDL version 426,2013-06-04 10:08:00,
2013-06-04 05:13:00,68.0,61.6,29.18,WNW,290,4.4,8.1,80,0.00,,,0.00,WSDL version 426,2013-06-04 10:13:00,
2013-06-04 05:18:00,67.9,61.8,29.18,WNW,301,3.7,8.1,81,0.00,,,0.00,WSDL version 426,2013-06-04 10:18:00,
2013-06-04 05:23:00,67.8,62.1,29.21,WNW,301,4.3,7.2,82,0.00,,,0.00,WSDL version 426,2013-06-04 10:23:00,
2013-06-04 05:28:00,67.8,62.3,29.21,NW,307,4.6,7.2,83,0.00,,,0.00,WSDL version 426,2013-06-04 10:28:00,
2013-06-04 05:33:00,67.6,62.4,29.21,West,259,3.8,6.5,84,0.00,,,0.00,WSDL version 426,2013-06-04 10:33:00,
2013-06-04 05:38:00,67.6,62.8,29.23,WSW,245,3.8,6.0,84,0.00,,,0.00,WSDL version 426,2013-06-04 10:38:00,
2013-06-04 05:43:00,67.7,63.2,29.23,WSW,239,5.2,8.5,86,0.00,,,0.00,WSDL version 426,2013-06-04 10:43:00,
2013-06-04 05:48:00,67.8,63.0,29.23,WSW,250,4.4,8.5,84,0.00,,,0.00,WSDL version 426,2013-06-04 10:48:00,
2013-06-04 05:53:00,67.8,62.6,29.23,SW,225,3.8,6.0,83,0.00,,,0.00,WSDL version 426,2013-06-04 10:53:00,
2013-06-04 05:58:00,67.8,62.3,29.23,WSW,243,3.2,6.3,82,0.04,,,0.04,WSDL version 426,2013-06-04 10:58:00,
2013-06-04 06:03:00,67.8,62.2,29.23,South,191,3.1,6.3,82,0.04,,,0.04,WSDL version 426,2013-06-04 11:03:00,
2013-06-04 06:08:00,67.6,62.3,29.23,SW,217,3.2,5.6,83,0.04,,,0.04,WSDL version 426,2013-06-04 11:08:00,
2013-06-04 06:13:00,67.6,62.6,29.23,SSW,197,3.3,4.3,84,0.04,,,0.04,WSDL version 426,2013-06-04 11:13:00,
2013-06-04 06:18:00,67.4,62.6,29.23,SSW,197,2.0,4.3,84,0.04,,,0.04,WSDL version 426,2013-06-04 11:18:00,
2013-06-04 06:23:00,67.3,62.5,29.23,South,178,2.7,3.8,86,0.08,,,0.08,WSDL version 426,2013-06-04 11:23:00,
2013-06-04 06:28:00,67.2,62.7,29.23,SSE,166,2.5,3.8,86,0.08,,,0.08,WSDL version 426,2013-06-04 11:28:00,
2013-06-04 06:33:00,67.1,62.6,29.23,SE,143,2.6,5.4,86,0.12,,,0.12,WSDL version 426,2013-06-04 11:33:00,
2013-06-04 06:38:00,66.9,63.0,29.23,South,178,3.7,6.5,88,0.12,,,0.12,WSDL version 426,2013-06-04 11:38:00,
2013-06-04 06:43:00,66.8,63.3,29.23,SE,141,3.7,6.5,89,0.16,,,0.16,WSDL version 426,2013-06-04 11:43:00,
2013-06-04 06:48:00,66.7,63.4,29.23,South,178,3.0,5.6,90,0.16,,,0.16,WSDL version 426,2013-06-04 11:48:00,
2013-06-04 06:53:00,66.6,63.6,29.21,SE,138,4.1,6.5,90,0.20,,,0.20,WSDL version 426,2013-06-04 11:53:00,
2013-06-04 06:58:00,66.6,63.9,29.21,SSE,160,4.4,8.1,91,0.21,,,0.25,WSDL version 426,2013-06-04 11:58:00,
2013-06-04 07:03:00,66.5,63.8,29.21,SE,141,4.3,8.1,91,0.21,,,0.25,WSDL version 426,2013-06-04 12:03:00,
2013-06-04 07:08:00,66.4,64.1,29.21,SSE,165,6.6,11.0,92,0.25,,,0.29,WSDL version 426,2013-06-04 12:08:00,
2013-06-04 07:13:00,66.4,64.2,29.21,SSE,152,5.8,11.0,93,0.29,,,0.33,WSDL version 426,2013-06-04 12:13:00,
2013-06-04 07:18:00,66.4,64.4,29.21,SSE,152,5.3,12.3,93,0.29,,,0.33,WSDL version 426,2013-06-04 12:18:00,
2013-06-04 07:23:00,66.3,64.3,29.18,SE,135,5.9,12.3,93,0.29,,,0.37,WSDL version 426,2013-06-04 12:23:00,
2013-06-04 07:28:00,66.2,64.6,29.18,SE,124,8.9,13.2,94,0.29,,,0.37,WSDL version 426,2013-06-04 12:28:00,
2013-06-04 07:33:00,66.2,64.8,29.18,SE,125,13.6,23.5,96,0.29,,,0.41,WSDL version 426,2013-06-04 12:33:00,
2013-06-04 07:38:00,66.0,64.7,29.15,SE,146,10.2,23.5,96,0.29,,,0.41,WSDL version 426,2013-06-04 12:38:00,
2013-06-04 07:43:00,66.0,64.7,29.15,SE,138,11.0,18.8,96,0.25,,,0.41,WSDL version 426,2013-06-04 12:43:00,
2013-06-04 07:48:00,66.0,64.7,29.15,ESE,123,14.7,26.4,96,0.25,,,0.41,WSDL version 426,2013-06-04 12:48:00,
2013-06-04 07:53:00,66.0,64.7,29.09,SE,132,14.6,26.6,96,0.21,,,0.41,WSDL version 426,2013-06-04 12:53:00,
2013-06-04 07:58:00,66.0,64.4,29.09,SE,130,23.1,35.6,93,0.16,,,0.41,WSDL version 426,2013-06-04 12:58:00,
2013-06-04 08:03:00,66.0,63.8,29.09,ESE,115,22.7,35.6,92,0.16,,,0.41,WSDL version 426,2013-06-04 13:03:00,
2013-06-04 08:08:00,66.0,63.6,29.03,SE,125,15.1,33.6,91,0.12,,,0.41,WSDL version 426,2013-06-04 13:08:00,
2013-06-04 08:13:00,66.0,63.2,29.03,SSE,152,12.6,23.9,90,0.08,,,0.41,WSDL version 426,2013-06-04 13:13:00,
2013-06-04 08:18:00,66.2,62.9,29.03,South,173,11.2,23.9,90,0.08,,,0.41,WSDL version 426,2013-06-04 13:18:00,
2013-06-04 08:23:00,66.2,63.2,29.09,SSE,160,11.6,19.9,90,0.04,,,0.41,WSDL version 426,2013-06-04 13:23:00,
2013-06-04 08:28:00,66.4,63.0,29.09,SE,138,10.2,19.9,89,0.04,,,0.41,WSDL version 426,2013-06-04 13:28:00,
2013-06-04 08:33:00,66.4,63.0,29.09,SSE,153,9.5,17.0,89,0.00,,,0.41,WSDL version 426,2013-06-04 13:33:00,
2013-06-04 08:38:00,66.6,62.8,29.09,SSE,166,9.4,16.8,88,0.00,,,0.41,WSDL version 426,2013-06-04 13:38:00,
2013-06-04 08:43:00,66.6,62.6,29.09,SSE,155,9.0,16.8,87,0.00,,,0.41,WSDL version 426,2013-06-04 13:43:00,
2013-06-04 08:48:00,66.7,62.0,29.09,South,174,11.6,18.8,84,0.00,,,0.41,WSDL version 426,2013-06-04 13:48:00,
2013-06-04 08:53:00,66.7,61.5,29.12,SSE,168,8.5,19.5,83,0.00,,,0.41,WSDL version 426,2013-06-04 13:53:00,
2013-06-04 08:58:00,66.8,61.3,29.12,SSE,160,11.0,20.6,82,0.00,,,0.41,WSDL version 426,2013-06-04 13:58:00,
2013-06-04 09:03:00,66.9,61.3,29.12,South,170,7.8,20.6,82,0.00,,,0.41,WSDL version 426,2013-06-04 14:03:00,
2013-06-04 09:08:00,66.9,61.3,29.12,SSE,160,8.9,17.2,82,0.00,,,0.41,WSDL version 426,2013-06-04 14:08:00,
2013-06-04 09:13:00,66.9,61.4,29.12,South,183,5.9,17.0,83,0.00,,,0.41,WSDL version 426,2013-06-04 14:13:00,
2013-06-04 09:18:00,67.1,61.5,29.12,South,185,6.6,12.5,82,0.00,,,0.41,WSDL version 426,2013-06-04 14:18:00,
2013-06-04 09:23:00,67.1,61.7,29.12,SSE,149,7.4,13.4,82,0.00,,,0.41,WSDL version 426,2013-06-04 14:23:00,
2013-06-04 09:28:00,67.3,61.9,29.12,SSE,150,6.4,15.2,83,0.00,,,0.41,WSDL version 426,2013-06-04 14:28:00,
2013-06-04 09:33:00,67.3,61.7,29.12,SSE,160,6.2,15.2,82,0.00,,,0.41,WSDL version 426,2013-06-04 14:33:00,
2013-06-04 09:38:00,67.5,61.9,29.09,SE,141,8.7,15.4,82,0.00,,,0.41,WSDL version 426,2013-06-04 14:38:00,
2013-06-04 09:43:00,67.7,61.8,29.09,SSE,155,8.4,15.4,81,0.00,,,0.41,WSDL version 426,2013-06-04 14:43:00,
2013-06-04 09:48:00,68.0,61.7,29.09,SSE,166,6.9,15.7,80,0.00,,,0.41,WSDL version 426,2013-06-04 14:48:00,
2013-06-04 09:53:00,68.3,61.6,29.12,SE,145,5.6,15.7,79,0.00,,,0.41,WSDL version 426,2013-06-04 14:53:00,
2013-06-04 09:58:00,68.6,61.9,29.12,SSW,196,5.5,12.5,79,0.00,,,0.41,WSDL version 426,2013-06-04 14:58:00,
2013-06-04 10:03:00,68.9,61.8,29.12,SSE,165,5.7,13.0,78,0.00,,,0.41,WSDL version 426,2013-06-04 15:03:00,
2013-06-04 10:08:00,69.3,61.9,29.12,SSE,155,4.9,13.0,78,0.00,,,0.41,WSDL version 426,2013-06-04 15:08:00,
2013-06-04 10:13:00,69.8,62.3,29.12,SSE,166,6.3,10.5,76,0.00,,,0.41,WSDL version 426,2013-06-04 15:13:00,
2013-06-04 10:18:00,70.3,62.3,29.12,SSE,158,6.4,14.1,75,0.00,,,0.41,WSDL version 426,2013-06-04 15:18:00,
2013-06-04 10:23:00,70.9,62.1,29.09,South,174,5.3,14.1,74,0.00,,,0.41,WSDL version 426,2013-06-04 15:23:00,
2013-06-04 10:28:00,71.8,62.8,29.09,SE,143,6.6,12.8,72,0.00,,,0.41,WSDL version 426,2013-06-04 15:28:00,
2013-06-04 10:33:00,72.3,62.2,29.09,South,169,6.3,13.2,70,0.00,,,0.41,WSDL version 426,2013-06-04 15:33:00,
2013-06-04 10:38:00,72.5,61.5,29.12,South,178,6.1,13.2,68,0.00,,,0.41,WSDL version 426,2013-06-04 15:38:00,
2013-06-04 10:43:00,72.7,61.2,29.12,South,174,7.8,10.3,67,0.00,,,0.41,WSDL version 426,2013-06-04 15:43:00,
2013-06-04 10:48:00,73.0,61.1,29.12,South,180,7.4,11.2,66,0.00,,,0.41,WSDL version 426,2013-06-04 15:48:00,
2013-06-04 10:53:00,73.3,61.1,29.12,SSE,160,7.0,12.8,65,0.00,,,0.41,WSDL version 426,2013-06-04 15:53:00,
2013-06-04 10:58:00,74.1,61.9,29.12,SSE,155,3.4,12.8,66,0.00,,,0.41,WSDL version 426,2013-06-04 15:58:00,
2013-06-04 11:03:00,74.7,61.2,29.12,South,170,8.4,14.3,62,0.00,,,0.41,WSDL version 426,2013-06-04 16:03:00,
2013-06-04 11:08:00,74.8,61.2,29.15,South,188,6.7,14.3,63,0.00,,,0.41,WSDL version 426,2013-06-04 16:08:00,
2013-06-04 11:13:00,75.1,61.1,29.15,SW,218,6.5,8.7,60,0.00,,,0.41,WSDL version 426,2013-06-04 16:13:00,
2013-06-04 11:18:00,75.5,60.7,29.15,SSW,213,6.0,8.7,60,0.00,,,0.41,WSDL version 426,2013-06-04 16:18:00,
2013-06-04 11:23:00,75.8,60.9,29.15,SW,225,4.8,9.8,60,0.00,,,0.41,WSDL version 426,2013-06-04 16:23:00,
2013-06-04 11:28:00,76.6,61.3,29.15,ESE,118,3.5,9.8,59,0.00,,,0.41,WSDL version 426,2013-06-04 16:28:00,
2013-06-04 11:33:00,77.5,61.2,29.15,East,96,3.8,7.8,57,0.00,,,0.41,WSDL version 426,2013-06-04 16:33:00,
2013-06-04 11:38:00,78.1,61.7,29.15,ESE,118,2.8,6.3,57,0.00,,,0.41,WSDL version 426,2013-06-04 16:38:00,
2013-06-04 11:43:00,78.7,61.0,29.15,SSE,155,2.6,5.6,54,0.00,,,0.41,WSDL version 426,2013-06-04 16:43:00,
2013-06-04 11:48:00,79.3,60.7,29.15,South,178,2.8,5.6,51,0.00,,,0.41,WSDL version 426,2013-06-04 16:48:00,
2013-06-04 11:53:00,79.6,60.6,29.15,East,95,1.9,4.9,53,0.00,,,0.41,WSDL version 426,2013-06-04 16:53:00,
2013-06-04 11:58:00,80.5,61.7,29.15,ENE,62,3.0,4.9,52,0.00,,,0.41,WSDL version 426,2013-06-04 16:58:00,
2013-06-04 12:03:00,80.7,60.7,29.15,SSE,160,1.8,4.3,48,0.00,,,0.41,WSDL version 426,2013-06-04 17:03:00,
2013-06-04 12:08:00,80.0,58.9,29.15,SSE,152,2.5,4.0,49,0.00,,,0.41,WSDL version 426,2013-06-04 17:08:00,
2013-06-04 12:13:00,80.4,59.4,29.15,WSW,245,2.1,3.4,49,0.00,,,0.41,WSDL version 426,2013-06-04 17:13:00,
2013-06-04 12:18:00,81.0,58.8,29.15,WSW,242,2.9,4.0,46,0.00,,,0.41,WSDL version 426,2013-06-04 17:18:00,
2013-06-04 12:23:00,80.9,58.3,29.15,NW,313,3.9,6.0,44,0.00,,,0.41,WSDL version 426,2013-06-04 17:23:00,
2013-06-04 12:28:00,80.9,58.2,29.15,North,3,4.1,6.3,47,0.00,,,0.41,WSDL version 426,2013-06-04 17:28:00,
2013-06-04 12:33:00,81.6,60.0,29.15,NNE,13,1.9,6.3,47,0.00,,,0.41,WSDL version 426,2013-06-04 17:33:00,
2013-06-04 12:38:00,82.1,60.6,29.15,SE,135,2.3,3.8,48,0.00,,,0.41,WSDL version 426,2013-06-04 17:38:00,
2013-06-04 12:43:00,82.9,60.7,29.15,SE,141,2.7,4.3,47,0.00,,,0.41,WSDL version 426,2013-06-04 17:43:00,
2013-06-04 12:48:00,83.5,61.4,29.15,NE,45,3.6,6.0,46,0.00,,,0.41,WSDL version 426,2013-06-04 17:48:00,
2013-06-04 12:53:00,83.5,60.6,29.15,East,87,2.9,6.0,46,0.00,,,0.41,WSDL version 426,2013-06-04 17:53:00,
2013-06-04 12:58:00,84.0,60.9,29.15,NE,55,2.4,4.3,45,0.00,,,0.41,WSDL version 426,2013-06-04 17:58:00,
2013-06-04 13:03:00,84.5,60.9,29.15,NE,35,2.1,4.3,45,0.00,,,0.41,WSDL version 426,2013-06-04 18:03:00,
2013-06-04 13:08:00,84.4,59.3,29.15,SSW,197,3.2,4.3,41,0.00,,,0.41,WSDL version 426,2013-06-04 18:08:00,
2013-06-04 13:13:00,84.0,57.4,29.15,SSW,200,4.1,6.5,40,0.00,,,0.41,WSDL version 426,2013-06-04 18:13:00,
2013-06-04 13:18:00,83.8,57.1,29.15,South,188,5.1,8.5,40,0.00,,,0.41,WSDL version 426,2013-06-04 18:18:00,
2013-06-04 13:23:00,83.7,57.6,29.15,SE,128,2.9,8.5,42,0.00,,,0.41,WSDL version 426,2013-06-04 18:23:00,
2013-06-04 13:28:00,83.9,58.5,29.15,SE,132,2.9,5.4,41,0.00,,,0.41,WSDL version 426,2013-06-04 18:28:00,
2013-06-04 13:33:00,84.7,59.4,29.15,East,101,3.4,5.6,43,0.00,,,0.41,WSDL version 426,2013-06-04 18:33:00,
2013-06-04 13:38:00,85.3,59.1,29.15,WSW,238,3.0,5.6,40,0.00,,,0.41,WSDL version 426,2013-06-04 18:38:00,
2013-06-04 13:43:00,84.9,58.4,29.15,ENE,73,3.0,6.3,41,0.00,,,0.41,WSDL version 426,2013-06-04 18:43:00,
2013-06-04 13:48:00,84.7,58.7,29.15,ENE,68,3.3,6.5,42,0.00,,,0.41,WSDL version 426,2013-06-04 18:48:00,
2013-06-04 13:53:00,84.7,59.2,29.15,NNE,31,2.8,6.5,42,0.00,,,0.41,WSDL version 426,2013-06-04 18:53:00,
2013-06-04 13:58:00,85.0,59.7,29.15,East,80,4.8,7.4,42,0.00,,,0.41,WSDL version 426,2013-06-04 18:58:00,
2013-06-04 14:03:00,86.2,60.1,29.15,SE,124,3.2,7.4,42,0.00,,,0.41,WSDL version 426,2013-06-04 19:03:00,
2013-06-04 14:08:00,86.8,60.6,29.15,ESE,105,6.1,7.6,42,0.00,,,0.41,WSDL version 426,2013-06-04 19:08:00,
2013-06-04 14:13:00,86.5,60.7,29.15,East,98,3.8,7.6,42,0.00,,,0.41,WSDL version 426,2013-06-04 19:13:00,
2013-06-04 14:18:00,86.8,60.6,29.15,ESE,104,3.9,7.2,41,0.00,,,0.41,WSDL version 426,2013-06-04 19:18:00,
2013-06-04 14:23:00,87.4,60.6,29.15,ESE,110,4.2,7.2,40,0.00,,,0.41,WSDL version 426,2013-06-04 19:23:00,
2013-06-04 14:28:00,87.8,60.8,29.15,ESE,103,4.8,7.8,41,0.00,,,0.41,WSDL version 426,2013-06-04 19:28:00,
2013-06-04 14:33:00,88.0,61.3,29.15,East,83,5.8,8.1,40,0.00,,,0.41,WSDL version 426,2013-06-04 19:33:00,
2013-06-04 14:38:00,87.5,60.5,29.15,East,93,4.5,8.7,41,0.00,,,0.41,WSDL version 426,2013-06-04 19:38:00,
2013-06-04 14:43:00,88.0,60.5,29.15,East,90,5.5,9.2,39,0.00,,,0.41,WSDL version 426,2013-06-04 19:43:00,
2013-06-04 14:48:00,88.1,60.8,29.15,East,83,4.5,9.2,40,0.00,,,0.41,WSDL version 426,2013-06-04 19:48:00,
2013-06-04 14:53:00,88.2,61.1,29.15,ESE,110,5.6,10.5,41,0.00,,,0.41,WSDL version 426,2013-06-04 19:53:00,
2013-06-04 14:58:00,88.2,61.4,29.15,ENE,65,6.4,10.5,40,0.00,,,0.41,WSDL version 426,2013-06-04 19:58:00,
2013-06-04 15:03:00,88.5,61.3,29.15,ESE,104,5.5,10.1,40,0.00,,,0.41,WSDL version 426,2013-06-04 20:03:00,
2013-06-04 15:08:00,88.6,61.0,29.15,SE,128,6.2,9.6,40,0.00,,,0.41,WSDL version 426,2013-06-04 20:08:00,
2013-06-04 15:13:00,88.7,61.6,29.15,ESE,109,5.5,9.8,41,0.00,,,0.41,WSDL version 426,2013-06-04 20:13:00,
2013-06-04 15:18:00,87.8,61.4,29.15,ESE,115,6.7,10.3,42,0.00,,,0.41,WSDL version 426,2013-06-04 20:18:00,
2013-06-04 15:23:00,87.4,61.4,29.15,ESE,107,6.4,10.3,42,0.00,,,0.41,WSDL version 426,2013-06-04 20:23:00,
2013-06-04 15:28:00,87.5,61.3,29.15,ESE,110,6.7,10.3,42,0.00,,,0.41,WSDL version 426,2013-06-04 20:28:00,
2013-06-04 15:33:00,87.6,62.1,29.15,ENE,78,7.3,11.4,42,0.00,,,0.41,WSDL version 426,2013-06-04 20:33:00,
2013-06-04 15:38:00,87.3,62.2,29.15,SE,127,5.7,11.4,45,0.00,,,0.41,WSDL version 426,2013-06-04 20:38:00,
2013-06-04 15:43:00,87.0,61.5,29.15,ESE,105,8.2,12.5,42,0.00,,,0.41,WSDL version 426,2013-06-04 20:43:00,
2013-06-04 15:48:00,86.6,61.1,29.15,ENE,62,6.3,12.5,43,0.00,,,0.41,WSDL version 426,2013-06-04 20:48:00,
2013-06-04 15:53:00,87.5,61.9,29.15,ESE,120,6.7,11.0,42,0.00,,,0.41,WSDL version 426,2013-06-04 20:53:00,
2013-06-04 15:58:00,86.7,60.9,29.15,ESE,105,5.9,10.5,42,0.00,,,0.41,WSDL version 426,2013-06-04 20:58:00,
2013-06-04 16:03:00,86.5,60.7,29.15,ESE,110,7.8,10.5,41,0.00,,,0.41,WSDL version 426,2013-06-04 21:03:00,
2013-06-04 16:08:00,87.2,61.6,29.15,ESE,110,6.2,11.2,43,0.00,,,0.41,WSDL version 426,2013-06-04 21:08:00,
2013-06-04 16:13:00,87.2,60.8,29.15,ESE,113,7.1,11.2,42,0.00,,,0.41,WSDL version 426,2013-06-04 21:13:00,
2013-06-04 16:18:00,87.5,61.6,29.15,ESE,107,6.7,11.0,42,0.00,,,0.41,WSDL version 426,2013-06-04 21:18:00,
2013-06-04 16:23:00,87.2,61.1,29.15,East,93,7.4,10.1,42,0.00,,,0.41,WSDL version 426,2013-06-04 21:23:00,
2013-06-04 16:28:00,87.9,61.3,29.15,SE,129,7.4,10.3,40,0.00,,,0.41,WSDL version 426,2013-06-04 21:28:00,
2013-06-04 16:33:00,88.3,61.3,29.15,ESE,103,6.7,11.0,40,0.00,,,0.41,WSDL version 426,2013-06-04 21:33:00,
2013-06-04 16:38:00,87.3,60.5,29.15,East,96,6.1,11.0,41,0.00,,,0.41,WSDL version 426,2013-06-04 21:38:00,
2013-06-04 16:44:00,87.4,60.9,29.15,ESE,113,6.1,10.3,40,0.00,,,0.41,WSDL version 426,2013-06-04 21:44:00,
2013-06-04 16:49:00,88.3,61.1,29.15,ESE,105,6.7,10.3,40,0.00,,,0.41,WSDL version 426,2013-06-04 21:49:00,
2013-06-04 16:54:00,89.5,61.5,29.15,ESE,105,5.9,8.7,39,0.00,,,0.41,WSDL version 426,2013-06-04 21:54:00,
2013-06-04 16:59:00,88.7,61.0,29.15,ESE,118,6.1,11.0,39,0.00,,,0.41,WSDL version 426,2013-06-04 21:59:00,
2013-06-04 17:04:00,87.3,59.9,29.15,East,100,7.2,11.0,40,0.00,,,0.41,WSDL version 426,2013-06-04 22:04:00,
2013-06-04 17:09:00,87.2,60.3,29.15,ESE,115,7.7,11.9,40,0.00,,,0.41,WSDL version 426,2013-06-04 22:09:00,
2013-06-04 17:14:00,86.3,59.3,29.15,ESE,108,7.4,11.9,41,0.00,,,0.41,WSDL version 426,2013-06-04 22:14:00,
2013-06-04 17:19:00,86.2,60.3,29.15,ESE,107,5.9,8.7,43,0.00,,,0.41,WSDL version 426,2013-06-04 22:19:00,
2013-06-04 17:24:00,87.1,61.3,29.15,ESE,107,6.4,9.4,42,0.00,,,0.41,WSDL version 426,2013-06-04 22:24:00,
2013-06-04 17:29:00,87.8,60.7,29.15,East,93,6.8,10.3,40,0.00,,,0.41,WSDL version 426,2013-06-04 22:29:00,
2013-06-04 17:34:00,88.8,61.5,29.15,ESE,113,4.5,11.0,40,0.00,,,0.41,WSDL version 426,2013-06-04 22:34:00,
2013-06-04 17:39:00,88.3,60.2,29.15,ESE,121,6.7,11.0,39,0.00,,,0.41,WSDL version 426,2013-06-04 22:39:00,
2013-06-04 17:44:00,87.3,60.1,29.15,ESE,115,6.4,10.1,40,0.00,,,0.41,WSDL version 426,2013-06-04 22:44:00,
2013-06-04 17:49:00,86.4,60.1,29.15,ESE,123,6.1,10.1,42,0.00,,,0.41,WSDL version 426,2013-06-04 22:49:00,
2013-06-04 17:54:00,85.6,60.6,29.15,ESE,113,6.6,10.7,43,0.00,,,0.41,WSDL version 426,2013-06-04 22:54:00,
2013-06-04 17:59:00,85.4,60.7,29.15,ESE,105,4.6,10.7,44,0.00,,,0.41,WSDL version 426,2013-06-04 22:59:00,
2013-06-04 18:04:00,85.3,61.1,29.15,ESE,104,5.1,9.8,45,0.00,,,0.41,WSDL version 426,2013-06-04 23:04:00,
2013-06-04 18:09:00,84.6,61.1,29.15,ESE,103,6.3,8.7,46,0.00,,,0.41,WSDL version 426,2013-06-04 23:09:00,
2013-06-04 18:14:00,83.7,60.6,29.15,ESE,110,8.4,10.7,46,0.00,,,0.41,WSDL version 426,2013-06-04 23:14:00,
2013-06-04 18:19:00,83.1,60.7,29.15,ESE,116,5.5,10.7,47,0.00,,,0.41,WSDL version 426,2013-06-04 23:19:00,
2013-06-04 18:24:00,82.8,61.0,29.15,ESE,105,5.5,7.8,48,0.00,,,0.41,WSDL version 426,2013-06-04 23:24:00,
2013-06-04 18:29:00,82.6,61.0,29.15,ESE,104,6.3,8.9,48,0.00,,,0.41,WSDL version 426,2013-06-04 23:29:00,
2013-06-04 18:34:00,82.5,61.1,29.15,ESE,113,6.1,9.4,49,0.00,,,0.41,WSDL version 426,2013-06-04 23:34:00,
2013-06-04 18:39:00,82.3,61.2,29.15,ESE,121,5.9,9.4,49,0.00,,,0.41,WSDL version 426,2013-06-04 23:39:00,
2013-06-04 18:44:00,81.9,60.9,29.15,ESE,118,7.2,9.6,49,0.00,,,0.41,WSDL version 426,2013-06-04 23:44:00,
2013-06-04 18:49:00,81.8,61.4,29.15,ESE,108,6.3,9.8,50,0.00,,,0.41,WSDL version 426,2013-06-04 23:49:00,
2013-06-04 18:54:00,81.3,61.3,29.15,ESE,115,5.3,9.8,51,0.00,,,0.41,WSDL version 426,2013-06-04 23:54:00,
2013-06-04 18:59:00,80.9,61.6,29.15,ESE,105,5.7,8.7,52,0.00,,,0.41,WSDL version 426,2013-06-04 23:59:00,
2013-06-04 19:04:00,81.2,61.9,29.15,ESE,113,5.5,8.7,52,0.00,,,0.41,WSDL version 426,2013-06-05 00:04:00,
2013-06-04 19:09:00,81.4,62.1,29.15,ESE,113,5.4,8.7,52,0.00,,,0.41,WSDL version 426,2013-06-05 00:09:00,
2013-06-04 19:14:00,80.9,61.1,29.15,ESE,103,7.0,11.9,51,0.00,,,0.41,WSDL version 426,2013-06-05 00:14:00,
2013-06-04 19:19:00,80.5,61.2,29.15,ESE,118,6.2,11.9,52,0.00,,,0.41,WSDL version 426,2013-06-05 00:19:00,
2013-06-04 19:24:00,80.4,61.7,29.15,ESE,108,5.3,8.1,53,0.00,,,0.41,WSDL version 426,2013-06-05 00:24:00,
2013-06-04 19:29:00,80.9,61.8,29.15,ESE,113,4.8,8.5,52,0.00,,,0.41,WSDL version 426,2013-06-05 00:29:00,
2013-06-04 19:34:00,82.0,62.0,29.15,ESE,113,4.2,8.7,50,0.00,,,0.41,WSDL version 426,2013-06-05 00:34:00,
2013-06-04 19:39:00,83.0,61.8,29.15,ESE,115,5.2,8.7,48,0.00,,,0.41,WSDL version 426,2013-06-05 00:39:00,
2013-06-04 19:44:00,83.1,61.4,29.15,ESE,113,4.6,8.1,48,0.00,,,0.41,WSDL version 426,2013-06-05 00:44:00,
2013-06-04 19:49:00,82.9,60.8,29.15,ESE,110,6.4,8.1,47,0.00,,,0.41,WSDL version 426,2013-06-05 00:49:00,
2013-06-04 19:54:00,82.5,60.5,29.15,ESE,104,5.5,9.8,48,0.00,,,0.41,WSDL version 426,2013-06-05 00:54:00,
2013-06-04 19:59:00,81.8,60.5,29.15,ESE,113,4.7,9.8,49,0.00,,,0.41,WSDL version 426,2013-06-05 00:59:00,
2013-06-04 20:04:00,80.6,60.4,29.15,ESE,115,4.1,8.9,51,0.00,,,0.41,WSDL version 426,2013-06-05 01:04:00,
2013-06-04 20:09:00,79.6,60.4,29.15,ESE,118,4.4,6.5,53,0.00,,,0.41,WSDL version 426,2013-06-05 01:09:00,
2013-06-04 20:14:00,79.4,61.4,29.15,ESE,118,4.1,6.5,54,0.00,,,0.41,WSDL version 426,2013-06-05 01:14:00,
2013-06-04 20:19:00,79.2,61.1,29.15,ESE,103,3.5,6.5,54,0.00,,,0.41,WSDL version 426,2013-06-05 01:19:00,
2013-06-04 20:24:00,78.4,61.0,29.15,East,95,3.0,6.5,55,0.00,,,0.41,WSDL version 426,2013-06-05 01:24:00,
2013-06-04 20:29:00,77.9,61.6,29.15,East,96,3.7,5.4,59,0.00,,,0.41,WSDL version 426,2013-06-05 01:29:00,
2013-06-04 20:34:00,77.9,62.4,29.15,East,98,3.5,4.9,59,0.00,,,0.41,WSDL version 426,2013-06-05 01:34:00,
2013-06-04 20:39:00,77.8,62.7,29.15,East,101,3.6,4.9,60,0.00,,,0.41,WSDL version 426,2013-06-05 01:39:00,
2013-06-04 20:44:00,77.6,62.7,29.15,ESE,105,3.5,5.6,61,0.00,,,0.41,WSDL version 426,2013-06-05 01:44:00,
2013-06-04 20:49:00,77.3,62.8,29.15,ESE,113,3.9,6.0,61,0.00,,,0.41,WSDL version 426,2013-06-05 01:49:00,
2013-06-04 20:54:00,76.9,62.7,29.15,ESE,110,4.0,6.5,62,0.00,,,0.41,WSDL version 426,2013-06-05 01:54:00,
2013-06-04 20:59:00,76.7,62.7,29.15,ESE,105,3.9,6.5,62,0.00,,,0.41,WSDL version 426,2013-06-05 01:59:00,
2013-06-04 21:04:00,76.6,63.0,29.15,ESE,118,3.5,5.4,63,0.00,,,0.41,WSDL version 426,2013-06-05 02:04:00,
2013-06-04 21:09:00,76.4,62.8,29.15,East,85,3.7,6.0,63,0.00,,,0.41,WSDL version 426,2013-06-05 02:09:00,
2013-06-04 21:14:00,76.3,62.9,29.15,ESE,104,3.3,6.0,64,0.00,,,0.41,WSDL version 426,2013-06-05 02:14:00,
2013-06-04 21:19:00,76.1,63.0,29.15,ESE,110,3.0,5.4,63,0.00,,,0.41,WSDL version 426,2013-06-05 02:19:00,
2013-06-04 21:24:00,75.5,62.1,29.15,ESE,110,2.9,6.0,64,0.00,,,0.41,WSDL version 426,2013-06-05 02:24:00,
2013-06-04 21:29:00,75.2,62.9,29.15,ESE,108,3.1,6.0,66,0.00,,,0.41,WSDL version 426,2013-06-05 02:29:00,
2013-06-04 21:34:00,75.4,63.3,29.15,ESE,108,2.5,4.3,66,0.00,,,0.41,WSDL version 426,2013-06-05 02:34:00,
2013-06-04 21:39:00,75.1,62.9,29.15,East,79,3.0,4.9,66,0.00,,,0.41,WSDL version 426,2013-06-05 02:39:00,
2013-06-04 21:44:00,74.4,62.6,29.15,ESE,110,3.3,4.9,67,0.00,,,0.41,WSDL version 426,2013-06-05 02:44:00,
2013-06-04 21:49:00,74.0,62.7,29.15,East,98,3.5,5.6,69,0.00,,,0.41,WSDL version 426,2013-06-05 02:49:00,
2013-06-04 21:54:00,74.0,63.7,29.15,East,93,3.2,5.6,71,0.00,,,0.41,WSDL version 426,2013-06-05 02:54:00,
2013-06-04 21:59:00,74.3,63.9,29.15,ESE,107,4.2,6.3,70,0.00,,,0.41,WSDL version 426,2013-06-05 02:59:00,
2013-06-04 22:04:00,74.0,63.4,29.15,East,98,3.8,6.3,70,0.00,,,0.41,WSDL version 426,2013-06-05 03:04:00,
2013-06-04 22:09:00,73.6,63.2,29.15,East,90,4.0,5.6,70,0.00,,,0.41,WSDL version 426,2013-06-05 03:09:00,
2013-06-04 22:14:00,73.3,63.3,29.15,East,93,3.8,5.6,71,0.00,,,0.41,WSDL version 426,2013-06-05 03:14:00,
2013-06-04 22:19:00,73.4,64.1,29.15,ESE,113,3.8,5.8,74,0.00,,,0.41,WSDL version 426,2013-06-05 03:19:00,
2013-06-04 22:24:00,73.9,64.7,29.15,ESE,121,3.7,6.5,72,0.00,,,0.41,WSDL version 426,2013-06-05 03:24:00,
2013-06-04 22:29:00,73.8,63.8,29.15,East,80,3.4,6.5,71,0.00,,,0.41,WSDL version 426,2013-06-05 03:29:00,
2013-06-04 22:34:00,73.5,63.5,29.15,East,98,3.3,5.8,71,0.00,,,0.41,WSDL version 426,2013-06-05 03:34:00,
2013-06-04 22:39:00,73.4,63.7,29.15,ESE,108,2.9,5.8,73,0.00,,,0.41,WSDL version 426,2013-06-05 03:39:00,
2013-06-04 22:44:00,74.1,64.7,29.15,East,100,2.9,4.9,72,0.00,,,0.41,WSDL version 426,2013-06-05 03:44:00,
2013-06-04 22:49:00,74.2,64.1,29.15,East,101,2.1,4.9,70,0.00,,,0.41,WSDL version 426,2013-06-05 03:49:00,
2013-06-04 22:54:00,73.9,63.5,29.15,ESE,115,2.3,4.7,70,0.00,,,0.41,WSDL version 426,2013-06-05 03:54:00,
2013-06-04 22:59:00,73.8,63.5,29.15,East,98,1.8,3.6,71,0.00,,,0.41,WSDL version 426,2013-06-05 03:59:00,
2013-06-04 23:01:00,73.9,64.0,29.15,ESE,113,1.6,3.6,72,0.00,,,0.41,WSDL version 426,2013-06-05 04:01:00,
2013-06-04 23:03:00,74.2,64.3,29.15,ESE,110,2.2,3.6,71,0.00,,,0.41,WSDL version 426,2013-06-05 04:03:00,
2013-06-04 23:04:00,74.3,64.4,29.15,ESE,118,2.7,3.8,71,0.00,,,0.41,WSDL version 426,2013-06-05 04:04:00,
2013-06-04 23:09:00,74.2,63.8,29.15,ESE,115,3.6,4.9,70,0.00,,,0.41,WSDL version 426,2013-06-05 04:09:00,
2013-06-04 23:10:00,74.1,63.7,29.15,ESE,115,4.3,5.4,70,0.00,,,0.41,WSDL version 426,2013-06-05 04:10:00,
2013-06-04 23:15:00,73.8,63.4,29.15,ESE,123,4.0,6.3,70,0.00,,,0.41,WSDL version 426,2013-06-05 04:15:00,
2013-06-04 23:19:00,73.8,63.4,29.15,ESE,115,5.4,7.4,71,0.00,,,0.41,WSDL version 426,2013-06-05 04:19:00,
2013-06-04 23:24:00,74.2,63.6,29.18,ESE,119,5.5,8.9,69,0.00,,,0.41,WSDL version 426,2013-06-05 04:24:00,
2013-06-04 23:29:00,74.1,63.3,29.18,ESE,120,5.5,8.9,69,0.00,,,0.41,WSDL version 426,2013-06-05 04:29:00,
2013-06-04 23:34:00,73.9,63.1,29.18,SE,125,5.6,8.7,69,0.00,,,0.41,WSDL version 426,2013-06-05 04:34:00,
2013-06-04 23:39:00,73.8,63.2,29.15,ESE,123,5.8,11.0,70,0.00,,,0.41,WSDL version 426,2013-06-05 04:39:00,
2013-06-04 23:44:00,74.2,63.4,29.15,SE,135,7.5,11.0,69,0.00,,,0.41,WSDL version 426,2013-06-05 04:44:00,
2013-06-04 23:49:00,74.0,63.2,29.15,ESE,123,7.1,11.4,69,0.00,,,0.41,WSDL version 426,2013-06-05 04:49:00,
2013-06-04 23:54:00,73.7,63.2,29.15,ESE,118,7.7,11.4,70,0.00,,,0.41,WSDL version 426,2013-06-05 04:54:00,
2013-06-04 23:59:00,73.6,63.2,29.15,SE,127,6.0,10.7,70,0.00,,,0.41,WSDL version 426,2013-06-05 04:59:00,